createdAt,value
2023-02-17T00:00:29.048Z,8.73
2023-02-17T00:01:28.991Z,8.83
2023-02-17T00:02:29.544Z,8.72
2023-02-17T00:03:28.951Z,8.76
2023-02-17T00:04:28.790Z,8.79
2023-02-17T00:05:28.740Z,8.68
2023-02-17T00:06:28.682Z,8.73
2023-02-17T00:07:28.614Z,8.76
2023-02-17T00:08:28.557Z,8.68
2023-02-17T00:09:28.514Z,8.79
2023-02-17T00:10:28.458Z,8.81
2023-02-17T00:11:28.402Z,8.75
2023-02-17T00:12:28.315Z,8.78
2023-02-17T00:13:28.252Z,8.78
2023-02-17T00:14:28.198Z,8.72
2023-02-17T00:15:28.135Z,8.83
2023-02-17T00:16:28.143Z,8.75
2023-02-17T00:17:28.012Z,8.78
2023-02-17T00:18:27.970Z,8.78
2023-02-17T00:19:27.895Z,8.69
2023-02-17T00:20:27.829Z,8.81
2023-02-17T00:21:27.791Z,8.81
2023-02-17T00:22:27.727Z,8.76
2023-02-17T00:23:27.656Z,8.81
2023-02-17T00:24:27.589Z,8.79
2023-02-17T00:25:27.543Z,8.79
2023-02-17T00:26:27.496Z,8.81
2023-02-17T00:27:27.494Z,8.78
2023-02-17T00:28:27.352Z,8.83
2023-02-17T00:29:27.299Z,8.84
2023-02-17T00:30:27.331Z,8.79
2023-02-17T00:31:27.243Z,8.83
2023-02-17T00:32:27.112Z,8.81
2023-02-17T00:33:27.059Z,8.81
2023-02-17T00:34:27.001Z,8.83
2023-02-17T00:35:26.939Z,8.84
2023-02-17T00:36:26.886Z,8.81
2023-02-17T00:37:26.819Z,8.76
2023-02-17T00:38:26.754Z,8.76
2023-02-17T00:39:26.702Z,8.84
2023-02-17T00:40:26.636Z,8.90
2023-02-17T00:41:26.591Z,8.81
2023-02-17T00:42:26.548Z,8.73
2023-02-17T00:43:41.041Z,8.79
2023-02-17T00:44:26.403Z,8.81
2023-02-17T00:45:26.353Z,8.86
2023-02-17T00:46:26.343Z,8.78
2023-02-17T00:47:26.220Z,8.84
2023-02-17T00:48:26.267Z,8.81
2023-02-17T00:49:26.115Z,8.84
2023-02-17T00:50:26.041Z,8.84
2023-02-17T00:51:25.983Z,8.88
2023-02-17T00:52:25.917Z,8.79
2023-02-17T00:53:25.865Z,8.87
2023-02-17T00:54:25.802Z,8.78
2023-02-17T00:55:25.748Z,8.84
2023-02-17T00:56:25.680Z,8.83
2023-02-17T00:57:25.619Z,8.87
2023-02-17T00:58:25.567Z,8.81
2023-02-17T00:59:25.501Z,8.83
2023-02-17T01:00:25.485Z,8.84
2023-02-17T01:01:25.421Z,8.83
2023-02-17T01:02:25.331Z,8.84
2023-02-17T01:03:25.267Z,8.84
2023-02-17T01:04:25.235Z,8.81
2023-02-17T01:05:32.042Z,8.86
2023-02-17T01:06:25.086Z,8.88
2023-02-17T01:07:25.038Z,8.83
2023-02-17T01:08:24.963Z,8.87
2023-02-17T01:09:24.903Z,8.79
2023-02-17T01:10:24.841Z,8.86
2023-02-17T01:11:24.792Z,8.87
2023-02-17T01:12:24.725Z,8.84
2023-02-17T01:13:24.661Z,8.87
2023-02-17T01:14:24.601Z,8.84
2023-02-17T01:15:24.670Z,8.83
2023-02-17T01:16:24.576Z,8.87
2023-02-17T01:17:24.422Z,8.88
2023-02-17T01:18:24.437Z,8.87
2023-02-17T01:19:24.385Z,8.87
2023-02-17T01:20:24.255Z,8.90
2023-02-17T01:21:24.183Z,8.84
2023-02-17T01:22:24.135Z,8.90
2023-02-17T01:23:24.083Z,8.86
2023-02-17T01:24:24.007Z,8.84
2023-02-17T01:25:23.944Z,8.88
2023-02-17T01:26:23.890Z,8.91
2023-02-17T01:27:23.829Z,8.87
2023-02-17T01:28:23.768Z,8.88
2023-02-17T01:29:23.718Z,8.86
2023-02-17T01:30:23.681Z,8.93
2023-02-17T01:31:23.768Z,8.88
2023-02-17T01:32:23.522Z,8.84
2023-02-17T01:33:23.473Z,8.84
2023-02-17T01:34:23.414Z,8.91
2023-02-17T01:35:23.353Z,8.93
2023-02-17T01:36:23.281Z,8.93
2023-02-17T01:37:23.230Z,8.87
2023-02-17T01:38:24.053Z,8.84
2023-02-17T01:39:23.101Z,8.91
2023-02-17T01:40:23.039Z,8.86
2023-02-17T01:41:22.997Z,8.86
2023-02-17T01:42:22.923Z,8.90
2023-02-17T01:43:22.864Z,8.96
2023-02-17T01:44:22.798Z,8.93
2023-02-17T01:45:22.740Z,8.87
2023-02-17T01:46:22.719Z,8.94
2023-02-17T01:47:22.619Z,8.97
2023-02-17T01:48:22.562Z,8.86
2023-02-17T01:49:22.506Z,8.97
2023-02-17T01:50:22.570Z,8.97
2023-02-17T01:51:22.390Z,8.86
2023-02-17T01:52:22.329Z,8.93
2023-02-17T01:53:22.275Z,8.93
2023-02-17T01:54:22.208Z,8.86
2023-02-17T01:55:22.144Z,8.93
2023-02-17T01:56:22.087Z,8.90
2023-02-17T01:57:22.032Z,8.90
2023-02-17T01:58:21.963Z,8.94
2023-02-17T01:59:21.907Z,8.93
2023-02-17T02:00:21.844Z,8.96
2023-02-17T02:01:21.782Z,8.91
2023-02-17T02:02:21.810Z,8.97
2023-02-17T02:03:21.668Z,8.88
2023-02-17T02:04:21.617Z,8.96
2023-02-17T02:05:21.548Z,8.93
2023-02-17T02:06:21.486Z,8.94
2023-02-17T02:07:21.535Z,8.96
2023-02-17T02:08:21.360Z,8.96
2023-02-17T02:09:21.303Z,8.97
2023-02-17T02:10:21.243Z,8.94
2023-02-17T02:11:21.186Z,8.96
2023-02-17T02:12:21.140Z,8.93
2023-02-17T02:13:21.065Z,8.91
2023-02-17T02:14:21.009Z,8.99
2023-02-17T02:15:20.952Z,8.94
2023-02-17T02:16:20.909Z,8.96
2023-02-17T02:17:20.825Z,8.97
2023-02-17T02:18:20.777Z,9.01
2023-02-17T02:19:20.711Z,8.91
2023-02-17T02:20:20.644Z,8.99
2023-02-17T02:21:20.595Z,8.94
2023-02-17T02:22:20.542Z,8.96
2023-02-17T02:23:20.489Z,8.97
2023-02-17T02:24:20.434Z,8.93
2023-02-17T02:25:20.438Z,8.93
2023-02-17T02:26:20.303Z,8.99
2023-02-17T02:27:20.229Z,8.94
2023-02-17T02:28:20.171Z,8.97
2023-02-17T02:29:20.114Z,8.99
2023-02-17T02:30:20.129Z,9.01
2023-02-17T02:31:20.124Z,8.99
2023-02-17T02:32:19.929Z,8.96
2023-02-17T02:33:19.873Z,8.96
2023-02-17T02:34:19.816Z,8.91
2023-02-17T02:35:19.757Z,8.90
2023-02-17T02:36:19.694Z,8.97
2023-02-17T02:37:19.632Z,9.04
2023-02-17T02:38:19.581Z,8.93
2023-02-17T02:39:19.516Z,9.02
2023-02-17T02:40:19.453Z,8.93
2023-02-17T02:41:19.399Z,9.01
2023-02-17T02:42:19.336Z,8.93
2023-02-17T02:43:19.276Z,8.99
2023-02-17T02:44:19.221Z,8.96
2023-02-17T02:45:19.155Z,8.97
2023-02-17T02:46:19.091Z,9.01
2023-02-17T02:47:19.038Z,8.94
2023-02-17T02:48:18.974Z,9.01
2023-02-17T02:49:18.916Z,8.99
2023-02-17T02:50:18.850Z,8.99
2023-02-17T02:51:18.798Z,8.96
2023-02-17T02:52:18.751Z,9.04
2023-02-17T02:53:18.673Z,8.97
2023-02-17T02:54:18.621Z,9.04
2023-02-17T02:55:18.554Z,8.96
2023-02-17T02:56:18.496Z,8.99
2023-02-17T02:57:18.435Z,8.96
2023-02-17T02:58:18.375Z,9.05
2023-02-17T02:59:18.321Z,9.02
2023-02-17T03:00:18.256Z,9.04
2023-02-17T03:01:21.103Z,9.04
2023-02-17T03:02:18.138Z,8.99
2023-02-17T03:03:18.075Z,8.97
2023-02-17T03:04:18.029Z,9.02
2023-02-17T03:05:17.963Z,8.99
2023-02-17T03:06:17.894Z,8.93
2023-02-17T03:07:17.841Z,9.01
2023-02-17T03:08:17.777Z,8.97
2023-02-17T03:09:17.733Z,9.04
2023-02-17T03:10:17.667Z,8.99
2023-02-17T03:11:17.603Z,9.01
2023-02-17T03:12:17.535Z,9.02
2023-02-17T03:13:17.501Z,8.96
2023-02-17T03:14:17.423Z,8.96
2023-02-17T03:15:17.357Z,9.05
2023-02-17T03:16:17.324Z,8.96
2023-02-17T03:17:17.238Z,9.04
2023-02-17T03:18:17.193Z,9.05
2023-02-17T03:19:17.122Z,8.97
2023-02-17T03:20:17.065Z,8.99
2023-02-17T03:21:16.998Z,8.96
2023-02-17T03:22:16.949Z,8.97
2023-02-17T03:23:16.889Z,9.04
2023-02-17T03:24:16.824Z,8.99
2023-02-17T03:25:16.769Z,8.96
2023-02-17T03:26:16.714Z,9.01
2023-02-17T03:27:16.641Z,9.06
2023-02-17T03:28:16.589Z,8.97
2023-02-17T03:29:16.526Z,9.02
2023-02-17T03:30:16.488Z,8.96
2023-02-17T03:31:16.507Z,8.97
2023-02-17T03:32:16.350Z,9.04
2023-02-17T03:33:16.289Z,8.99
2023-02-17T03:34:16.220Z,9.06
2023-02-17T03:35:16.164Z,9.02
2023-02-17T03:36:16.102Z,8.99
2023-02-17T03:37:16.040Z,9.02
2023-02-17T03:38:15.987Z,8.99
2023-02-17T03:39:15.923Z,9.05
2023-02-17T03:40:15.879Z,9.01
2023-02-17T03:41:15.801Z,8.99
2023-02-17T03:42:15.777Z,9.02
2023-02-17T03:43:17.635Z,9.01
2023-02-17T03:44:15.625Z,8.97
2023-02-17T03:45:15.563Z,9.02
2023-02-17T03:46:15.584Z,8.94
2023-02-17T03:47:15.456Z,8.97
2023-02-17T03:48:15.393Z,9.01
2023-02-17T03:49:15.335Z,9.02
2023-02-17T03:50:15.274Z,8.99
2023-02-17T03:51:15.210Z,9.02
2023-02-17T03:52:15.152Z,9.04
2023-02-17T03:53:15.083Z,9.01
2023-02-17T03:54:15.025Z,9.09
2023-02-17T03:55:14.970Z,8.96
2023-02-17T03:56:14.907Z,8.96
2023-02-17T03:57:14.855Z,9.09
2023-02-17T03:58:14.793Z,9.02
2023-02-17T03:59:14.727Z,9.02
2023-02-17T04:00:14.662Z,9.01
2023-02-17T04:01:14.672Z,8.94
2023-02-17T04:02:14.544Z,9.01
2023-02-17T04:03:14.482Z,9.02
2023-02-17T04:04:14.445Z,8.99
2023-02-17T04:05:14.364Z,9.02
2023-02-17T04:06:14.310Z,9.12
2023-02-17T04:07:14.246Z,9.05
2023-02-17T04:08:14.185Z,9.04
2023-02-17T04:09:14.134Z,8.94
2023-02-17T04:10:14.070Z,8.94
2023-02-17T04:11:14.010Z,8.94
2023-02-17T04:12:13.946Z,9.02
2023-02-17T04:13:13.892Z,9.05
2023-02-17T04:14:13.842Z,9.04
2023-02-17T04:15:13.796Z,9.04
2023-02-17T04:16:14.601Z,9.13
2023-02-17T04:17:13.644Z,9.10
2023-02-17T04:18:13.585Z,9.06
2023-02-17T04:19:13.531Z,8.99
2023-02-17T04:20:13.468Z,8.97
2023-02-17T04:21:13.417Z,8.99
2023-02-17T04:22:13.351Z,9.04
2023-02-17T04:23:13.285Z,9.02
2023-02-17T04:24:13.230Z,8.99
2023-02-17T04:25:13.168Z,9.10
2023-02-17T04:26:13.111Z,8.99
2023-02-17T04:27:13.049Z,9.12
2023-02-17T04:28:12.995Z,8.97
2023-02-17T04:29:12.936Z,9.12
2023-02-17T04:30:12.922Z,9.06
2023-02-17T04:31:13.018Z,9.06
2023-02-17T04:32:12.765Z,9.04
2023-02-17T04:33:12.693Z,9.13
2023-02-17T04:34:12.655Z,8.96
2023-02-17T04:35:12.595Z,8.97
2023-02-17T04:36:12.512Z,8.97
2023-02-17T04:37:12.447Z,9.06
2023-02-17T04:38:12.394Z,9.13
2023-02-17T04:39:12.330Z,9.10
2023-02-17T04:40:12.276Z,9.02
2023-02-17T04:41:12.212Z,9.04
2023-02-17T04:42:12.151Z,9.10
2023-02-17T04:43:12.094Z,9.10
2023-02-17T04:44:12.030Z,9.02
2023-02-17T04:45:11.980Z,9.09
2023-02-17T04:46:12.084Z,9.10
2023-02-17T04:47:11.864Z,9.05
2023-02-17T04:48:11.791Z,9.05
2023-02-17T04:49:11.734Z,9.05
2023-02-17T04:50:11.675Z,9.10
2023-02-17T04:51:11.623Z,9.09
2023-02-17T04:52:11.567Z,9.06
2023-02-17T04:53:11.494Z,9.13
2023-02-17T04:54:11.438Z,9.09
2023-02-17T04:55:11.385Z,9.02
2023-02-17T04:56:11.313Z,9.05
2023-02-17T04:57:11.256Z,9.02
2023-02-17T04:58:11.202Z,9.13
2023-02-17T04:59:11.132Z,9.09
2023-02-17T05:00:11.106Z,9.06
2023-02-17T05:01:11.033Z,9.06
2023-02-17T05:02:10.965Z,9.05
2023-02-17T05:03:10.895Z,9.13
2023-02-17T05:04:10.843Z,9.06
2023-02-17T05:05:10.777Z,9.12
2023-02-17T05:06:10.724Z,9.06
2023-02-17T05:07:10.654Z,9.05
2023-02-17T05:08:10.596Z,9.12
2023-02-17T05:09:10.542Z,9.04
2023-02-17T05:10:10.485Z,9.05
2023-02-17T05:11:10.419Z,9.09
2023-02-17T05:12:10.360Z,9.15
2023-02-17T05:13:10.298Z,9.06
2023-02-17T05:14:10.244Z,9.16
2023-02-17T05:15:10.203Z,9.06
2023-02-17T05:16:10.183Z,9.15
2023-02-17T05:17:10.061Z,9.02
2023-02-17T05:18:10.010Z,9.05
2023-02-17T05:19:09.945Z,9.09
2023-02-17T05:20:09.883Z,9.04
2023-02-17T05:21:09.847Z,9.12
2023-02-17T05:22:09.764Z,9.10
2023-02-17T05:23:09.699Z,9.04
2023-02-17T05:24:09.640Z,9.09
2023-02-17T05:25:09.584Z,9.04
2023-02-17T05:26:09.580Z,9.12
2023-02-17T05:27:09.463Z,9.16
2023-02-17T05:28:09.407Z,9.05
2023-02-17T05:29:09.346Z,9.13
2023-02-17T05:30:09.340Z,9.06
2023-02-17T05:31:09.288Z,9.13
2023-02-17T05:32:09.189Z,9.02
2023-02-17T05:33:09.102Z,9.10
2023-02-17T05:34:09.057Z,9.12
2023-02-17T05:35:08.988Z,9.10
2023-02-17T05:36:08.938Z,9.05
2023-02-17T05:37:08.901Z,9.06
2023-02-17T05:38:08.808Z,9.15
2023-02-17T05:39:08.764Z,9.02
2023-02-17T05:40:08.687Z,9.16
2023-02-17T05:41:08.633Z,9.05
2023-02-17T05:42:08.574Z,9.09
2023-02-17T05:43:08.555Z,9.16
2023-02-17T05:44:08.453Z,9.05
2023-02-17T05:45:08.397Z,9.13
2023-02-17T05:46:08.866Z,9.09
2023-02-17T05:47:08.297Z,9.06
2023-02-17T05:48:08.234Z,9.15
2023-02-17T05:49:08.149Z,9.10
2023-02-17T05:50:08.095Z,9.10
2023-02-17T05:51:08.040Z,9.13
2023-02-17T05:52:07.968Z,9.12
2023-02-17T05:53:07.915Z,9.06
2023-02-17T05:54:07.851Z,9.06
2023-02-17T05:55:07.796Z,9.13
2023-02-17T05:56:08.111Z,9.04
2023-02-17T05:57:07.674Z,9.10
2023-02-17T05:58:07.615Z,9.04
2023-02-17T05:59:07.560Z,9.09
2023-02-17T06:00:07.494Z,9.10
2023-02-17T06:01:07.435Z,9.10
2023-02-17T06:02:07.378Z,9.05
2023-02-17T06:03:07.323Z,9.13
2023-02-17T06:04:07.255Z,9.09
2023-02-17T06:05:07.232Z,9.13
2023-02-17T06:06:07.512Z,9.10
2023-02-17T06:07:07.077Z,9.10
2023-02-17T06:08:07.027Z,9.12
2023-02-17T06:09:06.973Z,9.13
2023-02-17T06:10:06.903Z,9.12
2023-02-17T06:11:06.844Z,9.05
2023-02-17T06:12:06.780Z,9.15
2023-02-17T06:13:06.729Z,9.06
2023-02-17T06:14:06.663Z,9.13
2023-02-17T06:15:06.690Z,9.10
2023-02-17T06:16:06.935Z,9.06
2023-02-17T06:17:06.483Z,9.09
2023-02-17T06:18:06.425Z,9.15
2023-02-17T06:19:06.364Z,9.06
2023-02-17T06:20:06.304Z,9.15
2023-02-17T06:21:06.327Z,9.05
2023-02-17T06:22:06.190Z,9.20
2023-02-17T06:23:06.126Z,9.09
2023-02-17T06:24:06.068Z,9.13
2023-02-17T06:25:06.003Z,9.02
2023-02-17T06:26:06.247Z,9.06
2023-02-17T06:27:05.893Z,9.09
2023-02-17T06:28:05.829Z,9.13
2023-02-17T06:29:05.765Z,9.04
2023-02-17T06:30:05.738Z,9.06
2023-02-17T06:31:05.755Z,9.04
2023-02-17T06:32:05.610Z,9.13
2023-02-17T06:33:05.528Z,9.12
2023-02-17T06:34:06.734Z,9.15
2023-02-17T06:35:05.402Z,9.15
2023-02-17T06:36:05.681Z,9.16
2023-02-17T06:37:05.285Z,9.05
2023-02-17T06:38:05.346Z,9.05
2023-02-17T06:39:05.166Z,9.13
2023-02-17T06:40:05.123Z,9.12
2023-02-17T06:41:05.051Z,9.09
2023-02-17T06:42:04.992Z,9.02
2023-02-17T06:43:04.925Z,9.12
2023-02-17T06:44:04.874Z,9.02
2023-02-17T06:45:04.806Z,9.10
2023-02-17T06:46:05.151Z,9.05
2023-02-17T06:47:04.686Z,9.10
2023-02-17T06:48:04.637Z,9.12
2023-02-17T06:49:04.583Z,9.09
2023-02-17T06:50:04.507Z,9.06
2023-02-17T06:51:04.448Z,9.05
2023-02-17T06:52:04.388Z,9.06
2023-02-17T06:53:04.322Z,9.06
2023-02-17T06:54:04.273Z,9.12
2023-02-17T06:55:04.203Z,9.12
2023-02-17T06:56:04.584Z,9.10
2023-02-17T06:57:04.084Z,9.15
2023-02-17T06:58:04.030Z,9.13
2023-02-17T06:59:03.966Z,9.05
2023-02-17T07:00:03.906Z,9.02
2023-02-17T07:01:03.848Z,9.10
2023-02-17T07:02:03.910Z,9.10
2023-02-17T07:03:03.885Z,9.09
2023-02-17T07:04:03.670Z,9.05
2023-02-17T07:05:03.610Z,9.15
2023-02-17T07:06:03.706Z,9.10
2023-02-17T07:07:03.498Z,9.09
2023-02-17T07:08:03.446Z,9.02
2023-02-17T07:09:03.374Z,9.16
2023-02-17T07:10:03.341Z,9.05
2023-02-17T07:11:03.258Z,9.10
2023-02-17T07:12:03.201Z,9.12
2023-02-17T07:13:03.138Z,9.02
2023-02-17T07:14:03.093Z,9.13
2023-02-17T07:15:03.018Z,9.24
2023-02-17T07:16:02.991Z,9.09
2023-02-17T07:17:02.897Z,9.05
2023-02-17T07:18:02.862Z,9.12
2023-02-17T07:19:02.803Z,9.02
2023-02-17T07:20:02.844Z,9.13
2023-02-17T07:21:02.661Z,9.12
2023-02-17T07:22:02.602Z,9.10
2023-02-17T07:23:02.542Z,9.09
2023-02-17T07:24:02.488Z,9.12
2023-02-17T07:25:02.419Z,9.15
2023-02-17T07:26:02.369Z,9.10
2023-02-17T07:27:02.301Z,9.12
2023-02-17T07:28:02.241Z,9.10
2023-02-17T07:29:02.183Z,9.12
2023-02-17T07:30:02.149Z,9.15
2023-02-17T07:31:02.092Z,9.16
2023-02-17T07:32:02.078Z,9.10
2023-02-17T07:33:01.957Z,9.12
2023-02-17T07:34:01.883Z,9.12
2023-02-17T07:35:01.833Z,9.20
2023-02-17T07:36:01.767Z,9.16
2023-02-17T07:37:01.716Z,9.10
2023-02-17T07:38:01.660Z,9.15
2023-02-17T07:39:01.587Z,9.10
2023-02-17T07:40:01.526Z,9.13
2023-02-17T07:41:01.467Z,9.12
2023-02-17T07:42:01.408Z,9.13
2023-02-17T07:43:01.344Z,9.15
2023-02-17T07:44:01.361Z,9.16
2023-02-17T07:45:01.221Z,9.23
2023-02-17T07:46:01.209Z,9.18
2023-02-17T07:47:01.103Z,9.16
2023-02-17T07:48:01.041Z,9.15
2023-02-17T07:49:00.987Z,9.12
2023-02-17T07:50:00.951Z,9.13
2023-02-17T07:51:00.867Z,9.15
2023-02-17T07:52:00.805Z,9.16
2023-02-17T07:53:00.751Z,9.15
2023-02-17T07:54:00.695Z,9.13
2023-02-17T07:55:00.632Z,9.23
2023-02-17T07:56:00.601Z,9.15
2023-02-17T07:57:00.512Z,9.23
2023-02-17T07:58:00.453Z,9.18
2023-02-17T07:59:00.394Z,9.16
2023-02-17T08:00:00.338Z,9.20
2023-02-17T08:01:00.267Z,9.13
2023-02-17T08:02:00.269Z,9.18
2023-02-17T08:03:00.160Z,9.18
2023-02-17T08:04:00.162Z,9.20
2023-02-17T08:05:00.036Z,9.20
2023-02-17T08:05:59.978Z,9.13
2023-02-17T08:06:59.911Z,9.23
2023-02-17T08:07:59.852Z,9.13
2023-02-17T08:08:59.795Z,9.18
2023-02-17T08:09:59.741Z,9.21
2023-02-17T08:10:59.673Z,9.21
2023-02-17T08:11:59.623Z,9.13
2023-02-17T08:12:59.551Z,9.23
2023-02-17T08:13:59.503Z,9.13
2023-02-17T08:14:59.432Z,9.23
2023-02-17T08:15:59.389Z,9.20
2023-02-17T08:16:59.372Z,9.23
2023-02-17T08:17:59.261Z,9.20
2023-02-17T08:18:59.194Z,9.16
2023-02-17T08:20:01.953Z,9.24
2023-02-17T08:20:59.078Z,9.18
2023-02-17T08:21:59.020Z,9.30
2023-02-17T08:22:58.955Z,9.21
2023-02-17T08:23:58.895Z,9.24
2023-02-17T08:24:58.837Z,9.21
2023-02-17T08:25:58.781Z,9.24
2023-02-17T08:26:58.745Z,9.21
2023-02-17T08:27:58.656Z,9.25
2023-02-17T08:28:58.598Z,9.16
2023-02-17T08:29:58.594Z,9.31
2023-02-17T08:30:58.551Z,9.27
2023-02-17T08:31:58.577Z,9.20
2023-02-17T08:32:58.365Z,9.21
2023-02-17T08:33:58.322Z,9.18
2023-02-17T08:34:58.243Z,9.27
2023-02-17T08:35:58.189Z,9.28
2023-02-17T08:36:58.124Z,9.16
2023-02-17T08:37:58.103Z,9.25
2023-02-17T08:38:58.003Z,9.24
2023-02-17T08:39:57.961Z,9.23
2023-02-17T08:40:57.925Z,9.24
2023-02-17T08:41:57.829Z,9.21
2023-02-17T08:42:57.767Z,9.28
2023-02-17T08:43:57.705Z,9.25
2023-02-17T08:44:57.648Z,9.25
2023-02-17T08:45:57.676Z,9.27
2023-02-17T08:46:57.573Z,9.25
2023-02-17T08:47:57.468Z,9.31
2023-02-17T08:48:57.443Z,9.25
2023-02-17T08:49:57.350Z,9.27
2023-02-17T08:50:57.302Z,9.31
2023-02-17T08:51:57.250Z,9.28
2023-02-17T08:52:57.203Z,9.28
2023-02-17T08:53:57.111Z,9.28
2023-02-17T08:54:57.060Z,9.38
2023-02-17T08:55:57.045Z,9.34
2023-02-17T08:56:56.931Z,9.30
2023-02-17T08:57:56.888Z,9.27
2023-02-17T08:58:56.832Z,9.35
2023-02-17T08:59:56.754Z,9.35
2023-02-17T09:00:56.696Z,9.31
2023-02-17T09:01:56.712Z,9.31
2023-02-17T09:02:56.619Z,9.34
2023-02-17T09:03:56.515Z,9.39
2023-02-17T09:04:56.638Z,9.31
2023-02-17T09:05:56.455Z,9.40
2023-02-17T09:06:56.340Z,9.31
2023-02-17T09:07:56.281Z,9.34
2023-02-17T09:08:56.215Z,9.34
2023-02-17T09:09:56.198Z,9.34
2023-02-17T09:10:56.097Z,9.31
2023-02-17T09:11:56.072Z,9.42
2023-02-17T09:12:56.012Z,9.34
2023-02-17T09:13:55.921Z,9.40
2023-02-17T09:14:55.881Z,9.38
2023-02-17T09:15:55.870Z,9.38
2023-02-17T09:16:55.742Z,9.31
2023-02-17T09:17:55.721Z,9.28
2023-02-17T09:18:55.636Z,9.28
2023-02-17T09:19:55.559Z,9.40
2023-02-17T09:20:55.503Z,9.30
2023-02-17T09:21:55.492Z,9.31
2023-02-17T09:22:55.388Z,9.34
2023-02-17T09:23:55.333Z,9.30
2023-02-17T09:24:55.292Z,9.35
2023-02-17T09:25:55.209Z,9.32
2023-02-17T09:26:55.159Z,9.38
2023-02-17T09:27:55.086Z,9.31
2023-02-17T09:28:55.077Z,9.39
2023-02-17T09:29:55.057Z,9.40
2023-02-17T09:30:54.982Z,9.32
2023-02-17T09:31:54.980Z,9.40
2023-02-17T09:32:54.849Z,9.40
2023-02-17T09:33:54.749Z,9.40
2023-02-17T09:34:54.674Z,9.42
2023-02-17T09:35:54.661Z,9.40
2023-02-17T09:36:54.559Z,9.43
2023-02-17T09:37:54.489Z,9.49
2023-02-17T09:38:54.457Z,9.40
2023-02-17T09:39:54.412Z,9.45
2023-02-17T09:40:54.347Z,9.50
2023-02-17T09:41:54.300Z,9.53
2023-02-17T09:42:54.261Z,9.39
2023-02-17T09:43:54.180Z,9.40
2023-02-17T09:44:54.101Z,9.43
2023-02-17T09:45:54.165Z,9.49
2023-02-17T09:47:01.738Z,9.49
2023-02-17T09:47:53.894Z,9.52
2023-02-17T09:48:53.841Z,9.49
2023-02-17T09:49:53.865Z,9.46
2023-02-17T09:50:53.796Z,9.40
2023-02-17T09:51:53.701Z,9.43
2023-02-17T09:52:53.807Z,9.52
2023-02-17T09:53:53.542Z,9.43
2023-02-17T09:54:53.484Z,9.52
2023-02-17T09:55:53.442Z,9.42
2023-02-17T09:56:53.370Z,9.43
2023-02-17T09:57:53.308Z,9.46
2023-02-17T09:58:53.246Z,9.43
2023-02-17T09:59:53.181Z,9.43
2023-02-17T10:00:53.126Z,9.46
2023-02-17T10:01:53.082Z,9.42
2023-02-17T10:02:53.096Z,9.49
2023-02-17T10:03:53.049Z,9.50
2023-02-17T10:04:52.919Z,9.46
2023-02-17T10:05:52.859Z,9.46
2023-02-17T10:06:52.770Z,9.46
2023-02-17T10:07:52.721Z,9.40
2023-02-17T10:08:52.680Z,9.48
2023-02-17T10:09:52.659Z,9.48
2023-02-17T10:10:54.193Z,9.40
2023-02-17T10:11:52.462Z,9.40
2023-02-17T10:12:52.464Z,9.48
2023-02-17T10:13:52.350Z,9.43
2023-02-17T10:14:53.199Z,9.45
2023-02-17T10:15:52.258Z,9.48
2023-02-17T10:16:52.195Z,9.38
2023-02-17T10:17:52.109Z,9.40
2023-02-17T10:18:52.053Z,9.56
2023-02-17T10:19:52.089Z,9.58
2023-02-17T10:20:51.929Z,9.52
2023-02-17T10:21:51.884Z,9.52
2023-02-17T10:22:52.066Z,9.52
2023-02-17T10:23:51.779Z,9.50
2023-02-17T10:24:51.753Z,9.53
2023-02-17T10:25:51.650Z,9.56
2023-02-17T10:26:51.580Z,9.52
2023-02-17T10:27:51.581Z,9.53
2023-02-17T10:28:51.535Z,9.58
2023-02-17T10:29:51.413Z,9.58
2023-02-17T10:30:51.477Z,9.53
2023-02-17T10:31:51.479Z,9.52
2023-02-17T10:32:51.313Z,9.52
2023-02-17T10:33:51.154Z,9.58
2023-02-17T10:34:51.147Z,9.58
2023-02-17T10:35:51.048Z,9.58
2023-02-17T10:36:50.980Z,9.57
2023-02-17T10:37:51.001Z,9.58
2023-02-17T10:38:50.859Z,9.57
2023-02-17T10:39:50.932Z,9.61
2023-02-17T10:40:55.692Z,9.64
2023-02-17T10:41:51.193Z,9.63
2023-02-17T10:42:57.182Z,9.64
2023-02-17T10:43:50.560Z,9.64
2023-02-17T10:44:50.571Z,9.57
2023-02-17T10:45:50.457Z,9.58
2023-02-17T10:46:50.408Z,9.66
2023-02-17T10:47:50.328Z,9.64
2023-02-17T10:48:50.267Z,9.63
2023-02-17T10:49:50.211Z,9.73
2023-02-17T10:50:50.150Z,9.66
2023-02-17T10:51:50.109Z,9.66
2023-02-17T10:52:50.033Z,9.63
2023-02-17T10:53:49.980Z,9.67
2023-02-17T10:54:49.911Z,9.67
2023-02-17T10:55:49.850Z,9.63
2023-02-17T10:56:49.799Z,9.67
2023-02-17T10:57:49.739Z,9.66
2023-02-17T10:58:49.673Z,9.66
2023-02-17T10:59:49.626Z,9.71
2023-02-17T11:00:49.594Z,9.68
2023-02-17T11:01:49.505Z,9.76
2023-02-17T11:02:49.440Z,9.71
2023-02-17T11:03:49.472Z,9.70
2023-02-17T11:04:49.327Z,9.75
2023-02-17T11:05:49.261Z,9.76
2023-02-17T11:06:49.207Z,9.68
2023-02-17T11:07:49.143Z,9.71
2023-02-17T11:08:49.088Z,9.75
2023-02-17T11:09:49.039Z,9.71
2023-02-17T11:10:48.961Z,9.70
2023-02-17T11:11:48.908Z,9.73
2023-02-17T11:12:48.853Z,9.79
2023-02-17T11:13:48.786Z,9.66
2023-02-17T11:14:48.728Z,9.75
2023-02-17T11:15:48.674Z,9.81
2023-02-17T11:16:48.606Z,9.68
2023-02-17T11:17:48.544Z,9.73
2023-02-17T11:18:48.496Z,9.75
2023-02-17T11:19:48.430Z,9.76
2023-02-17T11:20:48.367Z,9.78
2023-02-17T11:21:48.315Z,9.68
2023-02-17T11:22:48.251Z,9.76
2023-02-17T11:23:48.188Z,9.81
2023-02-17T11:24:48.137Z,9.79
2023-02-17T11:25:48.085Z,9.78
2023-02-17T11:26:48.022Z,9.78
2023-02-17T11:27:47.954Z,9.78
2023-02-17T11:28:47.899Z,9.82
2023-02-17T11:29:47.838Z,9.78
2023-02-17T11:30:47.777Z,9.82
2023-02-17T11:31:47.824Z,9.83
2023-02-17T11:32:47.665Z,9.83
2023-02-17T11:33:47.605Z,9.81
2023-02-17T11:34:47.546Z,9.85
2023-02-17T11:35:47.481Z,9.85
2023-02-17T11:36:47.426Z,9.86
2023-02-17T11:37:47.367Z,9.83
2023-02-17T11:38:47.306Z,9.83
2023-02-17T11:39:47.249Z,9.85
2023-02-17T11:40:47.189Z,9.85
2023-02-17T11:41:47.137Z,9.86
2023-02-17T11:42:47.072Z,9.86
2023-02-17T11:43:47.006Z,9.88
2023-02-17T11:44:46.949Z,9.83
2023-02-17T11:45:46.953Z,9.85
2023-02-17T11:46:46.839Z,9.89
2023-02-17T11:47:46.777Z,9.86
2023-02-17T11:48:46.715Z,9.83
2023-02-17T11:49:46.659Z,9.83
2023-02-17T11:50:46.600Z,9.81
2023-02-17T11:51:46.536Z,9.86
2023-02-17T11:52:46.481Z,9.82
2023-02-17T11:53:46.420Z,9.88
2023-02-17T11:54:46.356Z,9.85
2023-02-17T11:55:46.317Z,9.89
2023-02-17T11:56:46.240Z,9.82
2023-02-17T11:57:46.184Z,9.83
2023-02-17T11:58:46.115Z,9.91
2023-02-17T11:59:46.062Z,9.83
2023-02-17T12:00:46.006Z,9.91
2023-02-17T12:01:45.940Z,9.83
2023-02-17T12:02:45.913Z,9.88
2023-02-17T12:03:45.822Z,9.91
2023-02-17T12:04:45.785Z,9.86
2023-02-17T12:05:45.703Z,9.93
2023-02-17T12:06:45.647Z,9.89
2023-02-17T12:07:45.595Z,9.86
2023-02-17T12:08:47.563Z,9.89
2023-02-17T12:09:45.471Z,9.93
2023-02-17T12:10:45.423Z,9.85
2023-02-17T12:11:45.352Z,9.86
2023-02-17T12:12:45.284Z,9.89
2023-02-17T12:13:45.238Z,9.89
2023-02-17T12:14:45.172Z,9.94
2023-02-17T12:15:45.117Z,9.86
2023-02-17T12:16:45.080Z,9.93
2023-02-17T12:17:45.004Z,9.86
2023-02-17T12:18:44.933Z,9.97
2023-02-17T12:19:44.870Z,9.96
2023-02-17T12:20:44.813Z,9.96
2023-02-17T12:21:44.757Z,9.96
2023-02-17T12:22:44.694Z,9.93
2023-02-17T12:23:44.655Z,9.94
2023-02-17T12:24:44.584Z,9.89
2023-02-17T12:25:44.520Z,9.91
2023-02-17T12:26:44.482Z,9.96
2023-02-17T12:27:44.405Z,9.88
2023-02-17T12:28:44.340Z,9.97
2023-02-17T12:29:44.290Z,10.00
2023-02-17T12:30:44.339Z,9.91
2023-02-17T12:31:44.259Z,9.94
2023-02-17T12:32:44.105Z,9.91
2023-02-17T12:33:44.045Z,9.89
2023-02-17T12:34:43.990Z,9.94
2023-02-17T12:35:43.932Z,9.96
2023-02-17T12:36:43.897Z,9.96
2023-02-17T12:37:43.818Z,9.94
2023-02-17T12:38:43.756Z,9.93
2023-02-17T12:39:43.694Z,9.89
2023-02-17T12:40:43.628Z,9.94
2023-02-17T12:41:43.572Z,9.97
2023-02-17T12:42:43.517Z,10.01
2023-02-17T12:43:43.457Z,9.97
2023-02-17T12:44:43.395Z,9.94
2023-02-17T12:45:43.379Z,9.96
2023-02-17T12:46:43.280Z,9.96
2023-02-17T12:47:43.219Z,9.97
2023-02-17T12:48:43.172Z,9.89
2023-02-17T12:49:43.109Z,9.86
2023-02-17T12:50:43.045Z,9.93
2023-02-17T12:51:42.988Z,9.97
2023-02-17T12:52:42.926Z,9.93
2023-02-17T12:53:42.872Z,9.91
2023-02-17T12:54:42.841Z,10.01
2023-02-17T12:55:42.747Z,10.00
2023-02-17T12:56:42.690Z,10.00
2023-02-17T12:57:42.647Z,10.01
2023-02-17T12:58:42.607Z,9.88
2023-02-17T12:59:42.508Z,10.09
2023-02-17T13:00:42.470Z,9.99
2023-02-17T13:01:42.426Z,9.93
2023-02-17T13:02:42.391Z,10.07
2023-02-17T13:03:42.276Z,10.06
2023-02-17T13:04:42.212Z,10.03
2023-02-17T13:05:42.160Z,9.99
2023-02-17T13:06:42.104Z,10.01
2023-02-17T13:07:42.058Z,9.99
2023-02-17T13:08:41.982Z,10.06
2023-02-17T13:09:41.929Z,10.12
2023-02-17T13:10:41.863Z,10.07
2023-02-17T13:11:41.805Z,10.06
2023-02-17T13:12:41.747Z,10.04
2023-02-17T13:13:41.699Z,10.01
2023-02-17T13:14:41.632Z,10.12
2023-02-17T13:15:41.581Z,10.03
2023-02-17T13:16:41.510Z,10.03